createdAt,value
2023-04-07T00:00:33.518Z,15.90
2023-04-07T00:03:02.712Z,14.63
2023-04-07T00:05:29.936Z,13.93
2023-04-07T00:07:57.583Z,13.73
2023-04-07T00:10:25.409Z,12.63
2023-04-07T00:12:52.589Z,15.50
2023-04-07T00:15:19.734Z,14.10
2023-04-07T00:17:47.121Z,15.37
2023-04-07T00:20:14.237Z,15.40
2023-04-07T00:22:41.301Z,14.27
2023-04-07T00:25:08.639Z,14.67
2023-04-07T00:27:35.654Z,14.03
2023-04-07T00:30:03.055Z,16.00
2023-04-07T00:32:30.210Z,15.90
2023-04-07T00:34:57.290Z,14.90
2023-04-07T00:37:25.584Z,13.37
2023-04-07T00:39:53.154Z,13.73
2023-04-07T00:42:20.705Z,13.40
2023-04-07T00:44:47.777Z,13.40
2023-04-07T00:47:15.476Z,12.80
2023-04-07T00:49:42.610Z,13.17
2023-04-07T00:52:13.422Z,16.40
2023-04-07T00:54:42.574Z,13.57
2023-04-07T00:57:09.679Z,15.40
2023-04-07T00:59:36.744Z,14.67
2023-04-07T01:02:06.814Z,16.17
2023-04-07T01:04:38.782Z,14.13
2023-04-07T01:07:12.636Z,14.77
2023-04-07T01:09:47.525Z,16.63
2023-04-07T01:12:29.782Z,13.87
2023-04-07T01:15:00.247Z,14.20
2023-04-07T01:17:28.441Z,14.50
2023-04-07T01:20:07.882Z,14.33
2023-04-07T01:22:40.957Z,14.20
2023-04-07T01:25:26.673Z,12.53
2023-04-07T01:28:03.435Z,14.00
2023-04-07T01:30:32.168Z,15.80
2023-04-07T01:33:00.862Z,12.03
2023-04-07T01:35:30.003Z,12.70
2023-04-07T01:37:57.822Z,12.90
2023-04-07T01:40:25.981Z,13.07
2023-04-07T01:42:53.851Z,13.67
2023-04-07T01:45:21.109Z,14.00
2023-04-07T01:47:48.481Z,12.33
2023-04-07T01:50:15.788Z,13.53
2023-04-07T01:52:43.203Z,11.73
2023-04-07T01:55:10.730Z,12.90
2023-04-07T01:57:37.763Z,14.53
2023-04-07T02:00:05.378Z,14.33
2023-04-07T02:02:34.516Z,13.93
2023-04-07T02:05:05.433Z,13.90
2023-04-07T02:07:43.639Z,12.73
2023-04-07T02:10:12.737Z,12.40
2023-04-07T02:12:40.579Z,13.80
2023-04-07T02:15:09.266Z,13.73
2023-04-07T02:17:38.722Z,14.43
2023-04-07T02:20:07.665Z,13.30
2023-04-07T02:22:34.713Z,14.87
2023-04-07T02:25:01.833Z,13.83
2023-04-07T02:27:28.954Z,14.80
2023-04-07T02:29:56.052Z,13.53
2023-04-07T02:32:23.122Z,13.40
2023-04-07T02:34:50.169Z,14.33
2023-04-07T02:37:17.189Z,14.17
2023-04-07T02:39:44.214Z,14.47
2023-04-07T02:42:11.235Z,13.50
2023-04-07T02:44:38.429Z,13.87
2023-04-07T02:47:05.819Z,14.77
2023-04-07T02:49:32.937Z,14.13
2023-04-07T02:51:59.977Z,14.10
2023-04-07T02:54:27.024Z,13.80
2023-04-07T02:56:54.305Z,13.87
2023-04-07T02:59:22.556Z,14.10
2023-04-07T03:01:49.601Z,14.77
2023-04-07T03:04:16.815Z,13.37
2023-04-07T03:06:43.952Z,13.83
2023-04-07T03:09:11.049Z,12.57
2023-04-07T03:11:38.372Z,12.73
2023-04-07T03:14:05.422Z,13.23
2023-04-07T03:16:32.505Z,13.07
2023-04-07T03:18:59.618Z,14.13
2023-04-07T03:21:28.810Z,12.13
2023-04-07T03:23:56.057Z,11.80
2023-04-07T03:26:23.108Z,14.23
2023-04-07T03:28:50.259Z,12.70
2023-04-07T03:31:17.380Z,12.67
2023-04-07T03:33:44.536Z,12.97
2023-04-07T03:36:12.312Z,12.40
2023-04-07T03:38:39.374Z,11.87
2023-04-07T03:41:06.393Z,12.10
2023-04-07T03:43:33.447Z,12.00
2023-04-07T03:46:00.632Z,12.27
2023-04-07T03:48:29.176Z,11.67
2023-04-07T03:50:56.694Z,14.53
2023-04-07T03:53:23.733Z,12.27
2023-04-07T03:55:53.860Z,11.80
2023-04-07T03:58:20.998Z,11.17
2023-04-07T04:00:48.449Z,11.73
2023-04-07T04:03:15.943Z,11.40
2023-04-07T04:05:43.220Z,11.27
2023-04-07T04:08:10.587Z,11.87
2023-04-07T04:10:37.650Z,11.90
2023-04-07T04:13:06.750Z,10.57
2023-04-07T04:15:33.973Z,10.10
2023-04-07T04:18:01.333Z,11.40
2023-04-07T04:20:28.526Z,11.60
2023-04-07T04:22:55.594Z,10.80
2023-04-07T04:25:22.681Z,11.33
2023-04-07T04:27:49.702Z,12.27
2023-04-07T04:30:16.805Z,10.60
2023-04-07T04:32:43.923Z,10.97
2023-04-07T04:35:11.090Z,11.70
2023-04-07T04:37:38.180Z,10.50
2023-04-07T04:40:08.478Z,9.70
2023-04-07T04:42:35.920Z,10.00
2023-04-07T04:45:03.068Z,12.33
2023-04-07T04:47:30.759Z,9.77
2023-04-07T04:49:57.835Z,10.63
2023-04-07T04:52:25.267Z,12.27
2023-04-07T04:54:52.619Z,9.87
2023-04-07T04:57:19.784Z,11.47
2023-04-07T04:59:46.891Z,9.90
2023-04-07T05:02:14.031Z,10.30
2023-04-07T05:04:41.242Z,10.07
2023-04-07T05:07:08.518Z,9.47
2023-04-07T05:09:35.862Z,10.30
2023-04-07T05:12:03.173Z,10.73
2023-04-07T05:14:30.292Z,11.17
2023-04-07T05:16:57.475Z,10.60
2023-04-07T05:19:24.632Z,10.50
2023-04-07T05:21:51.720Z,10.23
2023-04-07T05:24:18.810Z,10.43
2023-04-07T05:26:46.053Z,10.90
2023-04-07T05:29:13.351Z,10.37
2023-04-07T05:31:41.353Z,11.10
2023-04-07T05:34:08.514Z,11.50
2023-04-07T05:36:36.084Z,10.90
2023-04-07T05:39:03.291Z,10.03
2023-04-07T05:41:30.438Z,11.40
2023-04-07T05:43:58.172Z,10.87
2023-04-07T05:46:25.307Z,11.13
2023-04-07T05:48:52.492Z,10.30
2023-04-07T05:51:19.610Z,11.67
2023-04-07T05:53:46.694Z,10.33
2023-04-07T05:56:13.739Z,9.60
2023-04-07T05:58:40.795Z,10.07
2023-04-07T06:01:07.856Z,10.33
2023-04-07T06:03:35.000Z,9.70
2023-04-07T06:06:02.166Z,9.20
2023-04-07T06:08:29.237Z,12.27
2023-04-07T06:10:56.388Z,10.33
2023-04-07T06:13:23.510Z,10.27
2023-04-07T06:15:50.694Z,9.77
2023-04-07T06:18:17.761Z,9.50
2023-04-07T06:20:44.828Z,9.90
2023-04-07T06:23:11.931Z,8.70
2023-04-07T06:25:38.989Z,10.20
2023-04-07T06:28:06.251Z,9.03
2023-04-07T06:30:33.433Z,9.33
2023-04-07T06:33:00.843Z,8.77
2023-04-07T06:35:28.286Z,8.90
2023-04-07T06:37:55.591Z,9.23
2023-04-07T06:40:22.631Z,9.70
2023-04-07T06:42:49.735Z,10.23
2023-04-07T06:45:17.114Z,9.27
2023-04-07T06:47:44.166Z,9.87
2023-04-07T06:50:11.483Z,9.43
2023-04-07T06:52:38.509Z,9.27
2023-04-07T06:55:06.479Z,9.23
2023-04-07T06:57:33.507Z,9.67
2023-04-07T07:00:00.605Z,10.00
2023-04-07T07:02:27.738Z,10.30
2023-04-07T07:04:54.876Z,9.97
2023-04-07T07:07:21.908Z,9.77
2023-04-07T07:09:48.977Z,9.37
2023-04-07T07:12:17.853Z,8.87
2023-04-07T07:14:44.957Z,8.00
2023-04-07T07:17:11.983Z,9.03
2023-04-07T07:19:39.082Z,9.17
2023-04-07T07:22:06.479Z,8.57
2023-04-07T07:24:34.078Z,8.60
2023-04-07T07:27:02.371Z,8.77
2023-04-07T07:29:29.475Z,9.17
2023-04-07T07:31:56.520Z,9.33
2023-04-07T07:34:23.608Z,8.67
2023-04-07T07:36:50.665Z,9.00
2023-04-07T07:39:17.755Z,7.80
2023-04-07T07:41:45.223Z,8.13
2023-04-07T07:44:12.307Z,7.97
2023-04-07T07:46:39.443Z,8.10
2023-04-07T07:49:06.549Z,7.97
2023-04-07T07:51:33.672Z,8.50
2023-04-07T07:54:01.059Z,8.23
2023-04-07T07:56:28.097Z,7.87
2023-04-07T07:58:55.727Z,7.07
2023-04-07T08:01:23.723Z,8.07
2023-04-07T08:03:51.546Z,8.60
2023-04-07T08:06:18.799Z,7.87
2023-04-07T08:08:46.094Z,8.57
2023-04-07T08:11:13.193Z,7.83
2023-04-07T08:13:40.300Z,9.83
2023-04-07T08:16:07.616Z,8.67
2023-04-07T08:18:34.686Z,7.57
2023-04-07T08:21:01.783Z,8.00
2023-04-07T08:23:28.902Z,8.53
2023-04-07T08:25:56.174Z,8.60
2023-04-07T08:28:23.401Z,8.17
2023-04-07T08:30:50.729Z,9.20
2023-04-07T08:33:17.744Z,10.40
2023-04-07T08:35:44.854Z,9.33
2023-04-07T08:38:12.111Z,8.70
2023-04-07T08:40:39.210Z,8.27
2023-04-07T08:43:10.559Z,7.97
2023-04-07T08:45:40.624Z,8.40
2023-04-07T08:48:17.699Z,7.63
2023-04-07T08:50:52.536Z,8.27
2023-04-07T08:53:23.862Z,9.23
2023-04-07T08:55:51.119Z,7.93
2023-04-07T08:58:19.092Z,8.27
2023-04-07T09:00:46.394Z,7.93
2023-04-07T09:03:13.801Z,9.40
2023-04-07T09:05:41.183Z,7.70
2023-04-07T09:08:08.232Z,6.90
2023-04-07T09:10:35.327Z,6.90
2023-04-07T09:13:02.368Z,7.47
2023-04-07T09:15:32.456Z,7.20
2023-04-07T09:17:59.774Z,6.90
2023-04-07T09:20:26.874Z,7.10
2023-04-07T09:22:54.063Z,7.60
2023-04-07T09:25:29.829Z,6.67
2023-04-07T09:28:03.873Z,7.00
2023-04-07T09:30:32.955Z,6.80
2023-04-07T09:33:00.814Z,7.77
2023-04-07T09:35:28.706Z,6.80
2023-04-07T09:38:22.008Z,7.10
2023-04-07T09:40:50.394Z,6.47
2023-04-07T09:43:18.750Z,6.73
2023-04-07T09:45:46.145Z,7.87
2023-04-07T09:48:20.253Z,7.20
2023-04-07T09:50:51.728Z,7.90
2023-04-07T09:53:23.098Z,7.03
2023-04-07T09:55:50.924Z,7.10
2023-04-07T09:58:18.484Z,7.53
2023-04-07T10:00:46.711Z,7.10
2023-04-07T10:03:13.899Z,7.40
2023-04-07T10:05:41.271Z,6.73
2023-04-07T10:08:08.416Z,8.00
2023-04-07T10:10:36.958Z,6.57
2023-04-07T10:13:06.088Z,6.37
2023-04-07T10:15:33.826Z,7.40
2023-04-07T10:18:01.177Z,7.07
2023-04-07T10:20:29.490Z,6.57
2023-04-07T10:22:59.369Z,7.20
2023-04-07T10:25:26.759Z,6.80
2023-04-07T10:27:55.514Z,6.77
2023-04-07T10:30:30.573Z,6.43
2023-04-07T10:32:57.870Z,9.10
2023-04-07T10:35:25.404Z,7.23
2023-04-07T10:38:08.032Z,7.50
2023-04-07T10:40:36.296Z,5.90
2023-04-07T10:43:03.658Z,5.50
2023-04-07T10:45:49.279Z,5.77
2023-04-07T10:48:18.335Z,5.33
2023-04-07T10:50:46.070Z,4.67
2023-04-07T10:53:14.021Z,5.40
2023-04-07T10:55:41.919Z,4.83
2023-04-07T10:58:21.939Z,4.37
2023-04-07T11:00:58.009Z,4.50
2023-04-07T11:03:25.737Z,4.37
2023-04-07T11:05:53.011Z,4.20
2023-04-07T11:08:50.570Z,4.20
2023-04-07T11:11:38.724Z,4.20
2023-04-07T11:14:06.196Z,3.70
2023-04-07T11:16:43.270Z,3.80
2023-04-07T11:19:11.119Z,3.13
2023-04-07T11:21:38.298Z,3.50
2023-04-07T11:24:05.617Z,3.70
2023-04-07T11:26:38.145Z,3.10
2023-04-07T11:29:05.521Z,3.67
2023-04-07T11:31:33.115Z,3.50
2023-04-07T11:34:04.970Z,3.07
2023-04-07T11:36:33.203Z,3.77
2023-04-07T11:39:00.725Z,3.93
2023-04-07T11:41:28.735Z,3.40
2023-04-07T11:44:05.741Z,3.60
2023-04-07T11:46:32.948Z,3.30
2023-04-07T11:49:13.442Z,3.40
2023-04-07T11:51:40.867Z,3.20
2023-04-07T11:54:07.993Z,3.50
2023-04-07T11:56:44.812Z,3.20
2023-04-07T11:59:20.454Z,3.50
2023-04-07T12:01:48.519Z,4.00
2023-04-07T12:04:18.922Z,3.90
2023-04-07T12:06:47.018Z,3.37
2023-04-07T12:09:35.580Z,3.47
2023-04-07T12:12:03.628Z,3.40
2023-04-07T12:14:30.672Z,3.30
2023-04-07T12:16:58.786Z,3.60
2023-04-07T12:19:29.303Z,3.73
2023-04-07T12:21:57.034Z,3.70
2023-04-07T12:24:24.223Z,3.60
2023-04-07T12:26:51.352Z,3.77
2023-04-07T12:29:20.147Z,3.50
2023-04-07T12:31:50.166Z,4.83
2023-04-07T12:34:18.052Z,3.90
2023-04-07T12:36:45.158Z,3.90
2023-04-07T12:39:12.553Z,3.70
2023-04-07T12:41:39.904Z,3.60
2023-04-07T12:44:07.071Z,3.40
2023-04-07T12:46:34.430Z,3.90
2023-04-07T12:49:01.610Z,6.07
2023-04-07T12:51:28.873Z,3.80
2023-04-07T12:53:58.521Z,4.47
2023-04-07T12:56:25.635Z,3.60
2023-04-07T12:58:53.609Z,4.30
2023-04-07T13:01:21.088Z,3.93
2023-04-07T13:03:48.805Z,4.10
2023-04-07T13:06:17.371Z,3.60
2023-04-07T13:08:44.510Z,4.50
2023-04-07T13:11:11.580Z,3.90
2023-04-07T13:13:38.631Z,3.40
2023-04-07T13:16:05.809Z,3.70
2023-04-07T13:18:32.895Z,4.00
2023-04-07T13:21:31.762Z,3.33
2023-04-07T13:23:48.562Z,3.03
2023-04-07T13:26:17.255Z,2.63
2023-04-07T13:28:45.955Z,2.90
2023-04-07T13:31:16.031Z,3.00
2023-04-07T13:33:43.605Z,2.70
2023-04-07T13:36:11.306Z,2.83
2023-04-07T13:38:38.516Z,2.70
2023-04-07T13:41:05.631Z,2.93
2023-04-07T13:43:32.710Z,3.00
2023-04-07T13:45:59.828Z,2.70
2023-04-07T13:48:26.967Z,3.10
2023-04-07T13:50:54.053Z,2.70
2023-04-07T13:53:21.722Z,3.03
2023-04-07T13:55:48.880Z,3.40
2023-04-07T13:58:16.813Z,4.43
2023-04-07T14:00:43.852Z,4.77
2023-04-07T14:03:11.054Z,2.60
2023-04-07T14:05:38.210Z,3.07
2023-04-07T14:08:05.885Z,2.90
2023-04-07T14:10:33.953Z,4.03
2023-04-07T14:13:01.734Z,2.90
2023-04-07T14:15:28.822Z,2.50
2023-04-07T14:17:55.909Z,2.50
2023-04-07T14:20:23.407Z,2.60
2023-04-07T14:22:51.237Z,2.80
2023-04-07T14:25:18.510Z,2.80
2023-04-07T14:27:45.698Z,2.47
2023-04-07T14:30:13.022Z,2.43
2023-04-07T14:32:40.173Z,2.00
2023-04-07T14:35:07.508Z,3.03
2023-04-07T14:37:35.889Z,2.30
2023-04-07T14:40:03.701Z,1.80
2023-04-07T14:42:31.115Z,1.97
2023-04-07T14:44:59.619Z,2.40
2023-04-07T14:47:30.160Z,2.70
2023-04-07T14:49:57.410Z,3.50
2023-04-07T14:52:24.728Z,2.23
2023-04-07T14:54:51.803Z,8.57
2023-04-07T14:57:18.932Z,2.07
2023-04-07T14:59:48.693Z,2.97
2023-04-07T15:02:16.123Z,2.00
2023-04-07T15:04:43.426Z,1.90
2023-04-07T15:07:10.599Z,2.10
2023-04-07T15:09:37.634Z,2.17
2023-04-07T15:12:05.226Z,1.80
2023-04-07T15:14:32.287Z,1.90
2023-04-07T15:16:59.329Z,1.83
2023-04-07T15:19:26.364Z,1.80
2023-04-07T15:21:53.449Z,3.37
2023-04-07T15:24:22.110Z,2.00
2023-04-07T15:26:49.678Z,2.93
2023-04-07T15:29:16.774Z,2.07
2023-04-07T15:31:43.981Z,4.43
2023-04-07T15:34:11.192Z,2.80
2023-04-07T15:36:38.248Z,2.57
2023-04-07T15:39:05.672Z,2.30
2023-04-07T15:41:33.051Z,3.10
2023-04-07T15:44:00.864Z,3.00
2023-04-07T15:46:28.355Z,3.40
2023-04-07T15:48:55.613Z,4.03
2023-04-07T15:51:22.746Z,4.67
2023-04-07T15:53:50.121Z,3.10
2023-04-07T15:56:17.419Z,2.57
2023-04-07T15:58:46.114Z,3.00
2023-04-07T16:01:13.351Z,3.10
2023-04-07T16:03:40.910Z,4.53
2023-04-07T16:06:08.120Z,4.00
2023-04-07T16:08:35.230Z,3.97
2023-04-07T16:11:02.422Z,5.67
2023-04-07T16:13:29.487Z,5.07
2023-04-07T16:15:57.398Z,3.47
2023-04-07T16:18:24.473Z,2.80
2023-04-07T16:20:51.520Z,2.87
2023-04-07T16:23:18.681Z,2.77
2023-04-07T16:25:45.718Z,3.37
2023-04-07T16:28:12.767Z,2.50
2023-04-07T16:30:40.090Z,2.43
2023-04-07T16:33:07.223Z,2.60
2023-04-07T16:35:34.693Z,2.33
2023-04-07T16:38:04.458Z,2.30
2023-04-07T16:40:31.840Z,2.40
2023-04-07T16:42:58.979Z,2.67
2023-04-07T16:45:26.192Z,2.20
2023-04-07T16:47:53.314Z,2.77
2023-04-07T16:50:20.585Z,2.70
2023-04-07T16:52:47.953Z,2.47
2023-04-07T16:55:15.044Z,2.80
2023-04-07T16:57:42.192Z,3.23
2023-04-07T17:00:09.793Z,2.30
2023-04-07T17:02:39.783Z,2.47
2023-04-07T17:05:07.366Z,2.80
2023-04-07T17:07:34.500Z,2.70
2023-04-07T17:10:02.130Z,2.67
2023-04-07T17:12:29.256Z,2.90
2023-04-07T17:14:56.333Z,2.63
2023-04-07T17:17:23.668Z,2.90
2023-04-07T17:19:51.537Z,3.60
2023-04-07T17:22:18.579Z,5.20
2023-04-07T17:24:45.989Z,23.80
2023-04-07T17:27:13.329Z,31.13
2023-04-07T17:29:40.479Z,25.70
2023-04-07T17:32:07.942Z,18.77
2023-04-07T17:34:35.326Z,15.13
2023-04-07T17:37:02.512Z,7.20
2023-04-07T17:39:29.547Z,6.57
2023-04-07T17:41:56.799Z,4.80
2023-04-07T17:44:23.881Z,4.27
2023-04-07T17:46:51.024Z,4.87
2023-04-07T17:49:18.324Z,4.07
2023-04-07T17:51:45.737Z,4.00
2023-04-07T17:54:12.762Z,4.63
2023-04-07T17:56:39.980Z,3.87
2023-04-07T17:59:09.530Z,4.90
2023-04-07T18:01:37.447Z,4.60
2023-04-07T18:04:06.556Z,3.67
2023-04-07T18:06:34.960Z,3.70
2023-04-07T18:09:02.511Z,3.30
2023-04-07T18:11:29.576Z,3.10
2023-04-07T18:13:56.614Z,4.07
2023-04-07T18:16:23.733Z,2.53
2023-04-07T18:18:51.272Z,3.47
2023-04-07T18:21:21.221Z,3.17
2023-04-07T18:23:48.424Z,2.80
2023-04-07T18:26:16.114Z,3.23
2023-04-07T18:28:43.494Z,3.33
2023-04-07T18:31:11.014Z,3.47
2023-04-07T18:33:38.133Z,3.33
2023-04-07T18:36:09.206Z,3.17
2023-04-07T18:38:37.962Z,4.03
2023-04-07T18:41:06.710Z,3.93
2023-04-07T18:43:33.977Z,4.30
2023-04-07T18:46:01.402Z,3.80
2023-04-07T18:48:28.567Z,4.07
2023-04-07T18:50:56.514Z,3.90
2023-04-07T18:53:24.380Z,6.17
2023-04-07T18:55:51.489Z,5.13
2023-04-07T18:58:19.259Z,16.83
2023-04-07T19:00:49.686Z,26.20
2023-04-07T19:03:17.310Z,25.20
2023-04-07T19:05:47.576Z,23.20
2023-04-07T19:08:15.816Z,19.83
2023-04-07T19:10:43.565Z,17.43
2023-04-07T19:13:10.685Z,18.13
2023-04-07T19:15:39.199Z,17.27
2023-04-07T19:18:07.956Z,18.73
2023-04-07T19:20:35.322Z,12.83
2023-04-07T19:23:02.572Z,12.27
2023-04-07T19:25:30.648Z,13.73
2023-04-07T19:27:58.269Z,10.87
2023-04-07T19:30:25.452Z,12.23
2023-04-07T19:32:52.639Z,13.60
2023-04-07T19:35:20.042Z,10.50
2023-04-07T19:37:48.223Z,13.17
2023-04-07T19:40:15.613Z,10.87
2023-04-07T19:42:42.925Z,12.37
2023-04-07T19:45:10.312Z,11.30
2023-04-07T19:47:38.345Z,11.10
2023-04-07T19:50:06.105Z,12.67
2023-04-07T19:52:33.233Z,11.03
2023-04-07T19:55:01.201Z,11.20
2023-04-07T19:57:30.917Z,11.93
2023-04-07T19:59:58.202Z,10.30
2023-04-07T20:02:25.590Z,10.07
2023-04-07T20:04:53.779Z,8.60
2023-04-07T20:07:21.802Z,8.23
2023-04-07T20:09:51.402Z,8.13
2023-04-07T20:12:18.566Z,10.67
2023-04-07T20:14:45.732Z,9.43
2023-04-07T20:17:13.316Z,8.03
2023-04-07T20:19:41.656Z,9.47
2023-04-07T20:22:09.129Z,7.40
2023-04-07T20:24:36.379Z,6.87
2023-04-07T20:27:03.543Z,7.37
2023-04-07T20:29:30.677Z,10.13
2023-04-07T20:31:57.919Z,6.93
2023-04-07T20:34:25.042Z,8.87
2023-04-07T20:36:52.363Z,8.20
2023-04-07T20:39:19.671Z,7.40
2023-04-07T20:41:46.936Z,8.00
2023-04-07T20:44:13.999Z,8.20
2023-04-07T20:46:42.001Z,6.93
2023-04-07T20:49:09.232Z,8.10
2023-04-07T20:51:36.724Z,12.97
2023-04-07T20:54:04.195Z,9.97
2023-04-07T20:56:31.734Z,10.67
2023-04-07T20:58:58.867Z,12.13
2023-04-07T21:01:26.016Z,12.57
2023-04-07T21:03:53.982Z,10.70
2023-04-07T21:06:21.421Z,11.03
2023-04-07T21:08:49.034Z,10.90
2023-04-07T21:11:16.393Z,10.00
2023-04-07T21:13:43.495Z,9.13
2023-04-07T21:16:14.002Z,9.77
2023-04-07T21:18:41.201Z,9.57
2023-04-07T21:21:08.311Z,10.83
2023-04-07T21:23:35.480Z,9.70
2023-04-07T21:26:03.093Z,18.47
2023-04-07T21:28:30.429Z,14.70
2023-04-07T21:30:58.186Z,12.30
2023-04-07T21:33:25.594Z,15.47
2023-04-07T21:35:52.855Z,12.80
2023-04-07T21:38:19.989Z,13.87
2023-04-07T21:40:47.171Z,12.40
2023-04-07T21:43:14.227Z,10.23
2023-04-07T21:45:41.292Z,9.33
2023-04-07T21:48:08.672Z,12.00
2023-04-07T21:50:36.896Z,8.83
2023-04-07T21:53:04.175Z,12.27
2023-04-07T21:55:31.357Z,9.00
2023-04-07T21:57:58.576Z,9.57
2023-04-07T22:00:26.020Z,9.20
2023-04-07T22:02:53.334Z,9.73
2023-04-07T22:05:21.666Z,10.07
2023-04-07T22:07:49.199Z,9.77
2023-04-07T22:10:16.649Z,9.57
2023-04-07T22:12:43.725Z,9.43
2023-04-07T22:15:12.145Z,9.77
2023-04-07T22:17:40.340Z,9.40
2023-04-07T22:20:08.532Z,9.63
2023-04-07T22:22:35.777Z,10.77
2023-04-07T22:25:03.242Z,10.67
2023-04-07T22:27:30.458Z,12.13
2023-04-07T22:29:57.570Z,10.80
2023-04-07T22:32:24.849Z,13.30
2023-04-07T22:34:51.957Z,12.77
2023-04-07T22:37:19.421Z,12.27
2023-04-07T22:39:46.910Z,11.83
2023-04-07T22:42:14.071Z,9.93
2023-04-07T22:44:41.163Z,10.83
2023-04-07T22:47:08.985Z,10.17
2023-04-07T22:49:36.342Z,16.63
2023-04-07T22:52:03.484Z,11.40
2023-04-07T22:54:30.597Z,12.97
2023-04-07T22:56:57.974Z,11.33
2023-04-07T22:59:25.351Z,12.00
2023-04-07T23:01:52.596Z,11.90
2023-04-07T23:04:21.295Z,10.50
2023-04-07T23:06:48.437Z,11.50
2023-04-07T23:09:15.556Z,12.73
2023-04-07T23:11:42.745Z,12.90
2023-04-07T23:14:09.792Z,13.83
2023-04-07T23:16:36.945Z,13.13
2023-04-07T23:19:04.057Z,14.17
2023-04-07T23:21:31.964Z,13.80
2023-04-07T23:23:59.745Z,13.50
2023-04-07T23:26:26.924Z,13.63
2023-04-07T23:28:53.986Z,14.03
2023-04-07T23:31:21.146Z,14.23
2023-04-07T23:33:48.330Z,15.83
2023-04-07T23:36:15.945Z,14.40
2023-04-07T23:38:42.983Z,14.17
2023-04-07T23:41:10.116Z,15.37
2023-04-07T23:43:37.173Z,13.67
2023-04-07T23:46:04.350Z,14.73
2023-04-07T23:48:31.662Z,12.60
2023-04-07T23:50:59.973Z,15.13
2023-04-07T23:53:27.204Z,15.00
2023-04-07T23:55:54.407Z,17.23
2023-04-07T23:58:21.405Z,15.13
